Latest Coastal Weather Observations for Ulladulla

IDN60701

Issued at 3:21 am EDT Tuesday 23 December 2014 (issued every 10 minutes, with the page automatically refreshed every 10 minutes)

About coastal observations | Map of coastal stations | Coastal observations for NSW | Marine services | Other Formats
Station Details ID: 069138 Name: ULLADULLA AWS Lat: -35.36 Lon: 150.48 Height: 35.7 m
Data from the previous 72 hours. | See also: Recent months at Ulladulla
Date/Time
EDT
Temp

°C
Wind Pressure Rain
since 9am
mm
Weather Cloud Vis
km
Sea
Height
m
Swell
Dir
 
Speed
knots
Gust
knots
hPa Trend Height
m
Period
s
Dir
23/03:00am 19.4 NNW 5 8 1013.5 - 0.0 - - - - - - -
23/02:30am 19.4 NNW 5 7 1013.7 - 0.0 - - - - - - -
23/02:00am 19.6 NNW 5 10 1013.9 - 0.0 - - - - - - -
23/01:30am 20.8 N 5 8 1014.3 - 0.0 - - - - - - -
23/01:00am 21.0 N 8 12 1014.9 - 0.0 - - - - - - -
23/12:30am 20.1 NNW 8 12 1014.4 - 0.0 - - - - - - -
23/12:00am 19.8 N 3 11 1014.3 - 0.0 - - - - - - -
 
Date/Time
EDT
Temp

°C
Wind Pressure Rain
since 9am
mm
Weather Cloud Vis
km
Sea
Height
m
Swell
Dir
 
Speed
knots
Gust
knots
hPa Trend Height
m
Period
s
Dir
22/11:30pm 19.9 NNE 4 9 1014.2 - 0.0 - - - - - - -
22/11:00pm 20.0 NNW 6 9 1014.4 - 0.0 - - - - - - -
22/10:30pm 20.5 NNW 5 9 1014.5 - 0.0 - - - - - - -
22/10:00pm 20.2 N 4 8 1014.2 - 0.0 - - - - - - -
22/09:30pm 20.4 N 4 9 1014.6 - 0.0 - - - - - - -
22/09:00pm 20.4 N 3 5 1014.5 - 0.0 - - - - - - -
22/08:30pm 20.8 NNW 4 8 1014.2 - 0.0 - - - - - - -
22/08:00pm 20.8 NW 3 7 1014.1 - 0.0 - - - - - - -
22/07:30pm 20.9 NNE 6 13 1014.2 - 0.0 - - - - - - -
22/07:00pm 21.4 NNE 7 12 1014.1 - 0.0 - - - - - - -
22/06:30pm 21.5 NE 6 11 1014.3 - 0.0 - - - - - - -
22/06:00pm 21.3 N 3 6 1014.4 - 0.0 - - - - - - -
22/05:30pm 21.6 NNE 4 8 1013.8 - 0.0 - - - - - - -
22/05:00pm 21.7 NNE 6 14 1013.5 - 0.0 - - - - - - -
22/04:30pm 21.7 NNE 6 13 1012.9 - 0.0 - - - - - - -
22/04:00pm 21.3 N 5 9 1013.2 - 0.0 - - - - - - -
22/03:30pm 21.9 NNE 8 15 1013.0 - 0.0 - - - - - - -
22/03:00pm 22.4 NNE 9 18 1013.6 - 0.0 - - - - - - -
22/02:30pm 23.6 N 5 10 1013.9 - 0.0 - - - - - - -
22/02:00pm 23.2 NNE 6 11 1014.1 - 0.0 - - - - - - -
22/01:30pm 22.5 NE 11 16 1014.5 - 0.0 - - - - - - -
22/01:00pm 22.3 NE 13 22 1015.0 - 0.0 - - - - - - -
22/12:30pm 21.9 NE 18 23 1015.4 - 0.0 - - - - - - -
22/12:00pm 21.9 NNE 13 18 1015.7 - 0.0 - - - - - - -
22/11:30am 22.1 NE 9 14 1015.9 - 0.0 - - - - - - -
22/11:00am 22.0 NNE 8 11 1015.9 - 0.0 - - - - - - -
22/10:30am 20.9 NNE 10 14 1015.9 - 0.0 - - - - - - -
22/10:00am 21.1 NNE 8 11 1016.0 - 0.0 - - - - - - -
22/09:30am 20.1 NNE 6 8 1015.9 - 0.0 - - - - - - -
22/09:00am 19.9 NNE 5 8 1016.0 - 0.0 - - - - - - -
22/08:30am 20.7 NNE 3 5 1015.9 - 0.0 - - - - - - -
22/08:00am 19.9 N 3 5 1015.6 - 0.0 - - - - - - -
22/07:30am 20.1 N 3 4 1015.4 - 0.0 - - - - - - -
22/07:00am 19.3 NNW 3 4 1015.3 - 0.0 - - - - - - -
22/06:30am 18.2 NNW 2 3 1015.1 - 0.0 - - - - - - -
22/06:00am 17.6 N 2 3 1014.8 - 0.0 - - - - - - -
22/05:30am 17.5 N 2 2 1014.5 - 0.0 - - - - - - -
22/05:00am 18.1 N 2 3 1014.3 - 0.0 - - - - - - -
22/04:30am 18.2 N 2 3 1014.3 - 0.0 - - - - - - -
22/04:00am 18.8 N 1 2 1014.3 - 0.0 - - - - - - -
22/03:30am 18.8 N 1 2 1014.4 - 0.0 - - - - - - -
22/03:00am 18.9 N 2 3 1014.6 - 0.0 - - - - - - -
22/02:30am 19.1 NNW 1 2 1014.7 - 0.0 - - - - - - -
22/02:00am 19.0 NNW 2 2 1014.9 - 0.0 - - - - - - -
22/01:30am 19.3 CALM 0 1 1015.1 - 0.0 - - - - - - -
22/01:00am 19.6 N 2 3 1015.4 - 0.0 - - - - - - -
22/12:30am 19.8 N 3 4 1015.4 - 0.0 - - - - - - -
22/12:00am 19.7 N 2 3 1015.4 - 0.0 - - - - - - -
 
Date/Time
EDT
Temp

°C
Wind Pressure Rain
since 9am
mm
Weather Cloud Vis
km
Sea
Height
m
Swell
Dir
 
Speed
knots
Gust
knots
hPa Trend Height
m
Period
s
Dir
21/11:30pm 19.8 N 3 4 1015.4 - 0.0 - - - - - - -
21/11:00pm 20.1 N 3 5 1015.2 - 0.0 - - - - - - -
21/10:30pm 20.4 N 5 7 1015.6 - 0.0 - - - - - - -
21/10:00pm 20.1 N 3 7 1015.3 - 0.0 - - - - - - -
21/09:30pm 20.1 N 3 5 1015.2 - 0.0 - - - - - - -
21/09:00pm 20.3 N 5 8 1014.9 - 0.0 - - - - - - -
21/08:30pm 20.4 N 3 7 1014.7 - 0.0 - - - - - - -
21/08:00pm 20.7 N 4 6 1014.3 - 0.0 - - - - - - -
21/07:30pm 20.9 NNE 5 10 1013.9 - 0.0 - - - - - - -
21/07:00pm 21.3 NNE 6 11 1013.6 - 0.0 - - - - - - -
21/06:30pm 21.7 N 5 9 1013.5 - 0.0 - - - - - - -
21/06:00pm 21.9 NNE 5 11 1013.4 - 0.0 - - - - - - -
21/05:30pm 22.0 NNE 6 13 1013.6 - 0.0 - - - - - - -
21/05:00pm 21.8 NE 10 15 1013.6 - 0.0 - - - - - - -
21/04:30pm 22.0 NNE 9 16 1013.8 - 0.0 - - - - - - -
21/04:00pm 22.0 NE 12 18 1013.9 - 0.0 - - - - - - -
21/03:30pm 21.9 NNE 16 23 1014.1 - 0.0 - - - - - - -
21/03:00pm 21.9 NE 12 17 1014.6 - 0.0 - - - - - - -
21/02:30pm 21.5 NE 10 16 1014.8 - 0.0 - - - - - - -
21/02:00pm 21.2 NE 12 19 1015.1 - 0.0 - - - - - - -
21/01:30pm 21.3 NE 12 20 1015.3 - 0.0 - - - - - - -
21/01:00pm 21.4 NE 11 17 1015.9 - 0.0 - - - - - - -
21/12:30pm 21.1 NE 11 17 1016.4 - 0.0 - - - - - - -
21/12:00pm 21.2 NE 10 17 1016.8 - 0.0 - - - - - - -
21/11:30am 21.4 NE 9 14 1017.2 - 0.0 - - - - - - -
21/11:00am 21.1 NNE 10 14 1017.3 - 0.0 - - - - - - -
21/10:30am 21.1 NE 8 12 1017.2 - 0.0 - - - - - - -
21/10:00am 20.2 NE 8 12 1017.3 - 0.0 - - - - - - -
21/09:30am 19.7 NE 10 12 1017.3 - 0.0 - - - - - - -
21/09:00am 19.1 NE 7 10 1017.7 - 0.0 - - - - - - -
21/08:30am 18.6 NE 5 6 1017.8 - 0.0 - - - - - - -
21/08:00am 18.9 N 4 6 1017.7 - 0.0 - - - - - - -
21/07:30am 17.7 N 4 6 1017.5 - 0.0 - - - - - - -
21/07:00am 16.7 N 3 6 1017.4 - 0.0 - - - - - - -
21/06:30am 16.0 N 2 4 1017.2 - 0.0 - - - - - - -
21/06:00am 15.4 N 1 2 1017.1 - 0.0 - - - - - - -
21/05:30am 15.2 N 2 2 1017.1 - 0.0 - - - - - - -
21/05:00am 15.7 CALM 0 0 1017.0 - 0.0 - - - - - - -
21/04:30am 16.0 CALM 0 0 1017.0 - 0.0 - - - - - - -
21/04:00am 15.9 CALM 0 0 1017.1 - 0.0 - - - - - - -
21/03:30am 16.5 N 1 2 1017.1 - 0.0 - - - - - - -
21/03:00am 16.8 N 1 3 1017.2 - 0.0 - - - - - - -
21/02:30am 17.3 NNW 1 3 1017.4 - 0.0 - - - - - - -
21/02:00am 17.5 N 3 4 1017.6 - 0.0 - - - - - - -
21/01:30am 17.7 NNW 3 5 1017.9 - 0.0 - - - - - - -
21/01:00am 17.7 N 3 4 1018.2 - 0.0 - - - - - - -
21/12:30am 17.9 N 3 4 1018.6 - 0.0 - - - - - - -
21/12:00am 18.2 N 2 4 1018.8 - 0.0 - - - - - - -
 
Date/Time
EDT
Temp

°C
Wind Pressure Rain
since 9am
mm
Weather Cloud Vis
km
Sea
Height
m
Swell
Dir
 
Speed
knots
Gust
knots
hPa Trend Height
m
Period
s
Dir
20/11:30pm 18.3 NE 2 5 1019.1 - 0.0 - - - - - - -
20/11:00pm 18.4 NE 4 5 1019.1 - 0.0 - - - - - - -
20/10:30pm 18.3 NE 5 7 1019.0 - 0.0 - - - - - - -
20/10:00pm 18.4 NE 4 7 1019.0 - 0.0 - - - - - - -
20/09:30pm 18.5 NE 3 4 1018.8 - 0.0 - - - - - - -
20/09:00pm 18.3 NE 3 5 1018.5 - 0.0 - - - - - - -
20/08:30pm 18.4 NE 3 6 1018.3 - 0.0 - - - - - - -
20/08:00pm 18.3 NE 4 7 1018.0 - 0.0 - - - - - - -
20/07:30pm 18.5 NE 3 5 1017.6 - 0.0 - - - - - - -
20/07:00pm 18.8 NE 5 7 1017.3 - 0.0 - - - - - - -
20/06:30pm 19.2 NE 6 8 1016.8 - 0.0 - - - - - - -
20/06:00pm 19.5 ENE 6 10 1016.5 - 0.0 - - - - - - -
20/05:30pm 19.8 ENE 7 11 1016.3 - 0.0 - - - - - - -
20/05:00pm 20.0 ENE 7 11 1016.0 - 0.0 - - - - - - -
20/04:30pm 20.1 ENE 7 12 1016.0 - 0.0 - - - - - - -
20/04:00pm 20.1 NE 8 14 1016.1 - 0.0 - - - - - - -
20/03:30pm 20.0 NE 8 13 1016.3 - 0.0 - - - - - - -
20/03:00pm 19.8 NE 9 14 1016.4 - 0.0 - - - - - - -
20/02:30pm 20.4 NE 9 15 1016.7 - 0.0 - - - - - - -
20/02:00pm 20.0 NE 9 15 1016.9 - 0.0 - - - - - - -
20/01:30pm 20.5 NE 8 11 1017.1 - 0.0 - - - - - - -
20/01:00pm 19.6 NE 7 10 1017.4 - 0.0 - - - - - - -
20/12:30pm 20.1 ENE 6 10 1017.7 - 0.0 - - - - - - -
20/12:00pm 19.8 NE 7 9 1017.8 - 0.0 - - - - - - -
20/11:30am 19.8 NE 6 9 1018.0 - 0.0 - - - - - - -
20/11:00am 19.0 NNE 6 9 1018.0 - 0.0 - - - - - - -
20/10:30am 18.4 NE 4 6 1018.1 - 0.0 - - - - - - -
20/10:00am 17.9 NE 5 7 1018.2 - 0.0 - - - - - - -
20/09:30am 17.9 NNE 3 5 1018.3 - 0.0 - - - - - - -
20/09:00am 18.1 N 3 6 1018.3 - 0.6 - - - - - - -
20/08:30am 17.9 NE 2 3 1018.2 - 0.6 - - - - - - -
20/08:00am 17.3 NW 2 6 1018.2 - 0.6 - - - - - - -
20/07:30am 16.6 WNW 2 3 1018.0 - 0.6 - - - - - - -
20/07:00am 15.8 CALM 0 0 1017.8 - 0.6 - - - - - - -
20/06:30am 15.4 WNW 1 2 1017.7 - 0.6 - - - - - - -
20/06:00am 14.9 WNW 2 3 1017.6 - 0.6 - - - - - - -
20/05:30am 14.7 WNW 2 3 1017.4 - 0.6 - - - - - - -
20/05:00am 14.6 W 2 3 1017.3 - 0.6 - - - - - - -
20/04:30am 14.9 W 3 5 1017.2 - 0.6 - - - - - - -
20/04:00am 15.0 W 3 5 1017.3 - 0.6 - - - - - - -
20/03:30am 15.0 W 4 6 1017.5 - 0.6 - - - - - - -

Other Formats:

Comma delimited format used in spreadsheet applications
http://www.bom.gov.au/fwo/IDN60701/IDN60701.94938.axf

JavaScript Object Notation format (JSON) in row-major order
http://www.bom.gov.au/fwo/IDN60701/IDN60701.94938.json